Time;durP1;ratioP1;P1;durP2;ratioP2;P2;SDS_P1;SDS_P2;PMS_P1;PMS_P2;Temp;Humidity;BMP_temperature;BMP_pressure;BME280_temperature;BME280_humidity;BME280_pressure;Samples;Min_cycle;Max_cycle;Signal;HPM_P1;HPM_P2
2022/03/20 00:00:22;;;;;;;14.60;4.95;;;;;;;6.28;70.64;103321.31;5026335;28;20141;-52
2022/03/20 00:02:48;;;;;;;14.05;4.50;;;;;;;6.22;71.46;103319.84;5011660;28;20929;-51
2022/03/20 00:05:14;;;;;;;12.88;5.30;;;;;;;6.18;72.78;103310.31;5012282;28;20115;-51
2022/03/20 00:07:41;;;;;;;16.92;5.13;;;;;;;6.16;73.05;103312.16;5012278;28;20025;-51
2022/03/20 00:10:07;;;;;;;12.93;5.55;;;;;;;6.07;71.72;103304.63;5012392;28;20037;-51
2022/03/20 00:12:33;;;;;;;13.38;5.68;;;;;;;6.06;72.77;103308.19;5012741;28;20129;-52
2022/03/20 00:14:59;;;;;;;11.15;5.60;;;;;;;6.04;75.58;103308.28;5012391;28;20032;-51
2022/03/20 00:17:24;;;;;;;15.38;5.70;;;;;;;5.98;73.93;103301.47;5012828;28;20029;-53
2022/03/20 00:19:50;;;;;;;18.75;5.55;;;;;;;5.94;75.07;103299.84;5012918;28;20124;-52
2022/03/20 00:22:15;;;;;;;14.07;5.63;;;;;;;5.91;75.00;103300.00;5012152;28;20099;-53
2022/03/20 00:24:41;;;;;;;14.20;6.05;;;;;;;5.87;74.76;103298.44;5011149;28;20158;-48
2022/03/20 00:27:12;;;;;;;10.50;5.28;;;;;;;5.82;74.95;103289.78;5012275;28;20026;-52
2022/03/20 00:29:38;;;;;;;12.95;5.78;;;;;;;5.79;75.58;103287.31;5011187;28;20043;-52
2022/03/20 00:32:08;;;;;;;14.40;6.00;;;;;;;5.71;75.20;103274.38;5012709;28;20471;-50
2022/03/20 00:34:34;;;;;;;11.02;5.80;;;;;;;5.62;75.20;103277.47;5007636;28;20143;-50
2022/03/20 00:36:59;;;;;;;11.30;5.75;;;;;;;5.61;76.76;103273.06;5011022;28;20128;-48
2022/03/20 00:39:25;;;;;;;13.98;5.65;;;;;;;5.56;76.63;103261.81;5011213;28;20026;-50
2022/03/20 00:41:50;;;;;;;13.70;5.63;;;;;;;5.48;76.68;103256.00;5007004;28;20157;-50
2022/03/20 00:44:15;;;;;;;16.00;5.57;;;;;;;5.44;76.42;103255.25;4996850;28;20472;-51
2022/03/20 00:46:40;;;;;;;13.48;6.00;;;;;;;5.36;77.40;103244.13;5012355;28;20048;-51
2022/03/20 00:49:06;;;;;;;13.25;5.70;;;;;;;5.35;78.05;103245.94;5028017;28;20055;-51
2022/03/20 00:51:32;;;;;;;13.27;5.15;;;;;;;5.29;77.53;103246.19;5015406;28;20029;-51
2022/03/20 00:53:57;;;;;;;16.15;5.50;;;;;;;5.24;77.96;103234.94;5015846;28;20068;-52
2022/03/20 00:56:23;;;;;;;11.75;5.50;;;;;;;5.27;78.57;103234.81;5015694;28;20410;-52
2022/03/20 00:58:48;;;;;;;15.23;6.28;;;;;;;5.20;78.22;103234.22;5013467;28;20381;-51
2022/03/20 01:01:14;;;;;;;16.35;6.40;;;;;;;5.16;78.54;103222.03;5016239;28;20034;-50
2022/03/20 01:03:41;;;;;;;12.75;6.53;;;;;;;5.13;78.50;103226.63;5015674;28;20037;-52
2022/03/20 01:06:06;;;;;;;18.73;8.07;;;;;;;5.10;78.86;103227.59;5015587;28;20029;-52
2022/03/20 01:08:32;;;;;;;25.15;7.75;;;;;;;5.05;79.04;103222.50;5014714;28;20348;-49
2022/03/20 01:10:57;;;;;;;27.42;9.25;;;;;;;5.03;78.89;103212.91;5014978;28;20068;-49
2022/03/20 01:13:23;;;;;;;16.90;7.05;;;;;;;4.99;78.91;103219.25;5015190;28;20028;-51
2022/03/20 01:15:49;;;;;;;21.88;9.00;;;;;;;4.94;78.69;103219.47;5015586;28;20189;-52
2022/03/20 01:18:14;;;;;;;17.73;7.75;;;;;;;4.93;79.97;103220.38;5015280;28;20045;-51
2022/03/20 01:20:40;;;;;;;15.70;6.68;;;;;;;4.84;79.91;103211.03;5013894;28;20393;-50
2022/03/20 01:23:05;;;;;;;13.90;7.30;;;;;;;4.83;79.80;103208.47;5014867;28;20044;-50
2022/03/20 01:25:31;;;;;;;17.63;8.38;;;;;;;4.78;80.18;103207.78;5014356;28;20053;-51
2022/03/20 01:27:56;;;;;;;17.65;8.48;;;;;;;4.74;81.38;103206.22;5014541;28;20049;-51
2022/03/20 01:30:22;;;;;;;19.42;8.70;;;;;;;4.69;81.01;103198.47;5013494;28;20089;-51
2022/03/20 01:32:47;;;;;;;20.67;9.45;;;;;;;4.71;80.96;103198.41;5010595;28;20481;-52
2022/03/20 01:35:12;;;;;;;20.70;10.15;;;;;;;4.65;80.36;103188.91;5013497;28;20322;-52
2022/03/20 01:37:40;;;;;;;20.10;11.05;;;;;;;4.63;80.32;103178.41;5011792;28;20530;-50
2022/03/20 01:40:07;;;;;;;24.48;11.20;;;;;;;4.63;80.66;103185.47;5014423;28;20033;-48
2022/03/20 01:42:33;;;;;;;24.35;11.77;;;;;;;4.60;80.99;103173.25;5012415;28;20025;-48
2022/03/20 01:44:58;;;;;;;28.40;13.00;;;;;;;4.59;80.20;103168.00;5015279;28;20678;-51
2022/03/20 01:47:23;;;;;;;32.40;13.25;;;;;;;4.57;80.05;103159.28;5015183;28;20025;-47
2022/03/20 01:49:49;;;;;;;27.33;13.52;;;;;;;4.55;80.50;103154.06;5014979;28;20051;-51
2022/03/20 01:52:23;;;;;;;27.27;14.48;;;;;;;4.55;80.74;103150.53;5013919;28;20025;-51
2022/03/20 01:54:49;;;;;;;30.23;14.52;;;;;;;4.52;81.46;103134.81;5013643;28;20591;-48
2022/03/20 01:57:20;;;;;;;35.00;15.15;;;;;;;4.48;80.64;103145.50;5014000;28;20064;-52
2022/03/20 01:59:46;;;;;;;33.63;15.05;;;;;;;4.44;80.74;103141.25;5013714;28;20103;-51
2022/03/20 02:02:12;;;;;;;27.23;14.85;;;;;;;4.42;81.21;103134.31;5013360;28;20025;-49
2022/03/20 02:04:38;;;;;;;31.70;15.02;;;;;;;4.44;81.76;103143.06;5014463;28;20056;-51
2022/03/20 02:07:05;;;;;;;32.83;15.82;;;;;;;4.39;80.59;103135.31;5013763;28;20052;-50
2022/03/20 02:09:31;;;;;;;34.70;16.17;;;;;;;4.36;81.21;103134.56;5013930;28;20029;-52
2022/03/20 02:11:57;;;;;;;34.17;16.42;;;;;;;4.29;81.08;103133.97;5008059;28;20025;-52
2022/03/20 02:14:22;;;;;;;36.00;16.58;;;;;;;4.27;80.71;103125.25;5005906;28;20132;-50
2022/03/20 02:16:49;;;;;;;32.97;16.25;;;;;;;4.27;81.97;103119.94;5014738;28;20029;-52
2022/03/20 02:19:14;;;;;;;32.72;16.27;;;;;;;4.26;82.47;103121.75;5014632;28;20030;-51
2022/03/20 02:21:48;;;;;;;35.00;16.48;;;;;;;4.22;81.40;103127.22;5014148;28;20498;-52
2022/03/20 02:24:33;;;;;;;31.02;16.15;;;;;;;4.16;82.25;103114.22;5014350;28;20222;-51
2022/03/20 02:27:11;;;;;;;32.53;16.80;;;;;;;4.15;81.81;103112.53;4994233;28;20456;-52
2022/03/20 02:29:37;;;;;;;33.17;15.32;;;;;;;4.10;82.03;103110.91;4992083;28;20035;-50
2022/03/20 02:32:04;;;;;;;38.75;16.85;;;;;;;4.09;82.59;103101.28;5014402;28;20084;-51
2022/03/20 02:34:31;;;;;;;35.33;16.10;;;;;;;4.07;82.53;103094.31;5013606;28;20049;-52
2022/03/20 02:36:57;;;;;;;35.83;16.70;;;;;;;4.07;83.18;103097.84;5013392;28;20080;-52
2022/03/20 02:39:22;;;;;;;32.33;16.23;;;;;;;4.06;82.33;103087.31;5013692;28;20033;-51
2022/03/20 02:41:49;;;;;;;37.97;15.75;;;;;;;4.05;84.36;103096.16;5013763;28;20032;-50
2022/03/20 02:44:16;;;;;;;29.80;15.95;;;;;;;4.00;83.49;103093.72;5013752;28;20491;-52
2022/03/20 02:46:42;;;;;;;33.92;17.60;;;;;;;3.98;83.13;103082.34;5012714;28;20018;-51
2022/03/20 02:49:09;;;;;;;31.17;16.73;;;;;;;3.93;83.58;103071.94;4998022;28;20384;-51
2022/03/20 02:51:35;;;;;;;35.63;18.33;;;;;;;3.89;82.95;103075.66;4994750;28;20610;-48
2022/03/20 02:54:02;;;;;;;36.97;17.50;;;;;;;3.87;83.86;103068.69;4991992;28;20044;-51
2022/03/20 02:56:28;;;;;;;37.00;18.42;;;;;;;3.85;83.59;103074.06;4992130;28;20100;-51
2022/03/20 02:58:54;;;;;;;33.30;17.13;;;;;;;3.83;83.92;103075.03;4991376;28;20120;-50
2022/03/20 03:01:19;;;;;;;36.75;17.40;;;;;;;3.79;84.52;103073.44;4992887;28;20030;-50
2022/03/20 03:03:45;;;;;;;39.25;17.17;;;;;;;3.74;84.03;103068.34;4992547;28;20158;-51
2022/03/20 03:06:14;;;;;;;37.67;17.92;;;;;;;3.70;84.82;103069.38;4992582;28;20380;-51
2022/03/20 03:11:24;;;;;;;32.05;16.48;;;;;;;3.63;84.96;103059.97;5012521;28;20048;-49
2022/03/20 03:13:49;;;;;;;37.70;17.40;;;;;;;3.54;85.84;103051.47;5012518;28;20033;-50
2022/03/20 03:16:16;;;;;;;38.85;17.83;;;;;;;3.55;86.45;103036.50;5013599;28;20492;-51
2022/03/20 03:18:47;;;;;;;37.10;17.98;;;;;;;3.50;86.65;103046.41;5013914;28;20096;-51
2022/03/20 03:21:16;;;;;;;42.30;18.55;;;;;;;3.48;87.32;103042.94;5013082;28;20025;-50
2022/03/20 03:23:42;;;;;;;42.75;19.30;;;;;;;3.43;86.94;103042.25;5006042;28;20029;-52
2022/03/20 03:26:10;;;;;;;40.03;20.02;;;;;;;3.42;87.27;103040.56;5012586;28;20048;-51
2022/03/20 03:28:36;;;;;;;40.13;18.75;;;;;;;3.40;87.00;103040.63;5011989;28;20033;-51
2022/03/20 03:31:10;;;;;;;39.03;19.30;;;;;;;3.40;86.88;103037.13;5013077;28;20029;-52
2022/03/20 03:36:22;;;;;;;41.60;19.95;;;;;;;3.29;87.38;103027.84;5013811;28;20169;-49
2022/03/20 03:38:47;;;;;;;41.05;20.17;;;;;;;3.31;88.53;103019.84;5003806;28;20650;-50
2022/03/20 03:41:12;;;;;;;41.30;20.42;;;;;;;3.28;87.86;103018.19;5011146;28;20048;-52
2022/03/20 03:43:38;;;;;;;43.80;20.65;;;;;;;3.25;88.01;103018.28;5010436;28;20495;-50
2022/03/20 03:46:03;;;;;;;43.80;19.67;;;;;;;3.25;87.46;103007.72;5013377;28;20026;-50
2022/03/20 03:48:28;;;;;;;43.50;20.88;;;;;;;3.22;88.44;103002.56;5011459;28;20214;-50
2022/03/20 03:50:54;;;;;;;46.25;21.25;;;;;;;3.16;87.78;103001.03;5013891;28;20025;-52
2022/03/20 03:53:20;;;;;;;45.35;21.50;;;;;;;3.15;88.46;102990.53;5012531;28;20071;-47
2022/03/20 03:55:45;;;;;;;41.25;21.83;;;;;;;3.15;88.91;102998.47;5012617;28;20439;-51
2022/03/20 03:58:12;;;;;;;46.13;20.30;;;;;;;3.11;88.54;102991.59;5013173;28;20391;-50
2022/03/20 04:00:38;;;;;;;40.15;20.50;;;;;;;3.09;88.35;102994.28;5012407;28;20056;-52
2022/03/20 04:03:04;;;;;;;44.13;21.30;;;;;;;3.08;88.83;102989.91;5013216;28;20053;-52
2022/03/20 04:05:29;;;;;;;45.63;22.20;;;;;;;3.07;88.75;102980.28;5012838;28;20300;-50
2022/03/20 04:07:55;;;;;;;42.40;20.25;;;;;;;3.07;88.98;102982.03;5012910;28;20415;-52
2022/03/20 04:10:22;;;;;;;41.72;21.35;;;;;;;3.06;88.99;102977.72;5012960;28;20076;-51
2022/03/20 04:12:47;;;;;;;48.20;21.58;;;;;;;3.03;88.46;102972.53;5012143;28;20511;-54
2022/03/20 04:15:14;;;;;;;46.65;21.42;;;;;;;3.02;88.90;102976.97;5012670;28;20017;-55
2022/03/20 04:17:40;;;;;;;46.08;21.83;;;;;;;3.00;88.49;102968.22;5012786;28;20199;-54
2022/03/20 04:20:12;;;;;;;45.15;21.35;;;;;;;3.03;89.10;102976.03;5013311;28;20318;-55
2022/03/20 04:22:39;;;;;;;47.38;21.35;;;;;;;3.04;88.72;102966.31;5012028;28;20037;-54
2022/03/20 04:25:06;;;;;;;46.42;20.95;;;;;;;3.03;88.52;102959.34;5013756;28;20029;-54
2022/03/20 04:27:32;;;;;;;43.58;21.45;;;;;;;3.01;89.11;102948.00;5014016;28;20411;-55
2022/03/20 04:29:57;;;;;;;45.63;22.23;;;;;;;3.04;88.31;102946.09;5017138;28;20025;-54
2022/03/20 04:32:23;;;;;;;44.53;21.70;;;;;;;3.05;88.21;102942.50;5017500;28;20056;-54
2022/03/20 04:34:48;;;;;;;42.50;20.33;;;;;;;3.02;88.34;102929.44;5016862;28;20107;-53
2022/03/20 04:37:16;;;;;;;42.40;19.27;;;;;;;3.02;87.86;102925.94;5016217;28;20021;-53
2022/03/20 04:39:42;;;;;;;43.83;22.00;;;;;;;3.01;88.39;102918.94;5015360;28;20029;-53
2022/03/20 04:42:09;;;;;;;41.40;21.63;;;;;;;3.00;88.27;102912.78;5015646;28;20036;-54
2022/03/20 04:44:39;;;;;;;44.65;21.63;;;;;;;2.99;88.58;102911.94;5016486;28;20429;-54
2022/03/20 05:00:47;;;;;;;43.05;20.83;;;;;;;2.91;88.61;102898.19;5016267;28;20098;-55
2022/03/20 05:03:13;;;;;;;50.95;19.73;;;;;;;2.96;87.27;102900.66;5016284;28;20424;-55
2022/03/20 05:05:38;;;;;;;42.08;19.88;;;;;;;2.90;87.58;102898.25;5016397;28;20029;-55
2022/03/20 05:08:04;;;;;;;43.38;19.55;;;;;;;2.89;88.22;102899.19;5015436;28;20032;-54
2022/03/20 05:13:19;;;;;;;43.53;19.63;;;;;;;2.86;87.93;102883.47;5015578;28;20148;-54
2022/03/20 05:15:44;;;;;;;43.80;20.05;;;;;;;2.87;88.25;102885.16;5016289;28;20059;-54
2022/03/20 05:18:10;;;;;;;40.03;20.13;;;;;;;2.84;87.47;102874.75;5015952;28;20056;-55
2022/03/20 05:20:35;;;;;;;46.00;21.67;;;;;;;2.82;88.16;102873.94;5015818;28;20043;-55
2022/03/20 05:23:01;;;;;;;40.65;19.67;;;;;;;2.81;88.40;102873.06;5015870;28;20025;-54
2022/03/20 05:25:29;;;;;;;39.70;19.95;;;;;;;2.79;87.90;102867.00;5014527;28;20083;-55
2022/03/20 05:27:55;;;;;;;37.95;19.73;;;;;;;2.76;88.20;102865.34;4997881;28;20026;-54
2022/03/20 05:30:21;;;;;;;46.20;20.13;;;;;;;2.75;87.40;102871.56;5015630;28;20296;-55
2022/03/20 05:32:48;;;;;;;44.85;19.92;;;;;;;2.75;88.36;102876.81;5031042;28;20784;-55
2022/03/20 05:35:15;;;;;;;40.90;19.92;;;;;;;2.74;88.05;102875.09;5015880;28;20131;-53
2022/03/20 05:37:41;;;;;;;41.83;20.17;;;;;;;2.74;88.10;102877.72;5014448;28;20029;-54
2022/03/20 05:40:06;;;;;;;43.55;20.67;;;;;;;2.73;86.78;102872.50;5015162;28;20112;-53
2022/03/20 05:42:32;;;;;;;50.58;20.95;;;;;;;2.73;86.89;102870.75;5013585;28;20531;-54
2022/03/20 05:44:57;;;;;;;45.85;21.80;;;;;;;2.73;86.50;102865.47;5015615;28;20025;-55
2022/03/20 05:47:23;;;;;;;45.05;20.85;;;;;;;2.73;86.42;102870.75;5015452;28;20037;-53
2022/03/20 05:49:48;;;;;;;43.55;20.73;;;;;;;2.73;86.08;102860.19;5015505;28;20888;-54
2022/03/20 05:52:15;;;;;;;46.00;22.35;;;;;;;2.76;86.48;102859.19;5013591;28;20444;-54
2022/03/20 05:54:40;;;;;;;47.95;22.50;;;;;;;2.78;85.33;102854.72;5014753;28;20116;-54
2022/03/20 05:59:53;;;;;;;44.85;21.33;;;;;;;2.79;84.66;102840.63;5014477;28;20167;-54
2022/03/20 06:02:19;;;;;;;41.42;20.73;;;;;;;2.85;83.89;102840.38;5014724;28;20452;-54
2022/03/20 06:04:45;;;;;;;48.08;21.50;;;;;;;2.91;84.21;102839.28;5015490;28;20511;-54
2022/03/20 06:07:10;;;;;;;45.33;20.55;;;;;;;2.95;82.94;102838.22;5014616;28;20033;-54
2022/03/20 06:09:36;;;;;;;50.85;22.23;;;;;;;2.95;82.48;102836.47;5014651;28;20064;-54
2022/03/20 06:12:01;;;;;;;43.70;21.02;;;;;;;2.96;82.23;102842.59;5013742;28;20132;-54
2022/03/20 06:14:26;;;;;;;45.83;22.02;;;;;;;2.99;81.50;102843.31;5015808;28;20025;-54
2022/03/20 06:16:51;;;;;;;43.92;20.83;;;;;;;3.02;81.40;102839.69;5013490;28;20216;-54
2022/03/20 06:19:17;;;;;;;44.15;21.58;;;;;;;3.06;81.24;102838.66;5014674;28;20033;-53
2022/03/20 06:21:44;;;;;;;46.38;20.80;;;;;;;3.10;80.43;102836.72;5013742;28;20028;-54
2022/03/20 06:24:09;;;;;;;45.13;21.27;;;;;;;3.15;80.27;102837.41;5014564;28;20308;-53
2022/03/20 06:26:35;;;;;;;46.33;22.00;;;;;;;3.17;79.47;102838.19;5013651;28;20110;-54
2022/03/20 06:29:01;;;;;;;48.50;21.90;;;;;;;3.22;79.09;102833.56;5011850;28;20021;-54
2022/03/20 06:31:26;;;;;;;48.33;21.98;;;;;;;3.25;79.16;102833.44;5015548;28;20056;-54
2022/03/20 06:33:54;;;;;;;44.22;21.42;;;;;;;3.27;79.06;102828.97;5015061;28;20476;-54
2022/03/20 06:36:19;;;;;;;45.95;21.17;;;;;;;3.33;79.01;102828.72;5013671;28;20046;-53
2022/03/20 06:38:44;;;;;;;47.90;22.05;;;;;;;3.38;79.67;102827.66;5013534;28;20029;-54
2022/03/20 06:41:09;;;;;;;45.60;21.98;;;;;;;3.42;79.36;102829.25;5013443;28;20036;-54
2022/03/20 06:43:36;;;;;;;46.00;21.65;;;;;;;3.45;79.15;102835.25;5012409;28;20021;-54
2022/03/20 06:46:03;;;;;;;58.55;22.05;;;;;;;3.46;78.70;102829.06;5013822;28;20113;-52
2022/03/20 06:48:28;;;;;;;47.13;22.73;;;;;;;3.50;77.71;102825.34;5013271;28;20724;-53
2022/03/20 06:50:54;;;;;;;48.33;22.35;;;;;;;3.55;79.06;102819.88;5004047;28;20201;-54
2022/03/20 06:53:20;;;;;;;43.50;21.75;;;;;;;3.57;77.76;102823.31;4994039;28;20117;-53
2022/03/20 06:55:46;;;;;;;51.28;22.45;;;;;;;3.63;77.47;102822.16;4994188;28;20025;-54
2022/03/20 06:58:13;;;;;;;47.13;21.50;;;;;;;3.69;78.20;102812.19;4994344;28;20100;-52
2022/03/20 07:00:40;;;;;;;42.38;21.42;;;;;;;3.77;76.89;102816.28;5008896;28;20095;-54
2022/03/20 07:03:07;;;;;;;45.20;21.85;;;;;;;3.87;77.04;102812.28;5013356;28;20033;-53
2022/03/20 07:05:33;;;;;;;51.15;22.30;;;;;;;3.96;75.31;102798.66;5013368;28;20121;-53
2022/03/20 07:08:00;;;;;;;47.78;22.33;;;;;;;4.02;73.43;102808.97;5012918;28;20037;-52
2022/03/20 07:10:26;;;;;;;46.75;21.83;;;;;;;4.08;74.93;102802.53;5011528;28;20025;-53
2022/03/20 07:13:48;;;;;;;45.42;21.58;;;;;;;4.10;72.82;102788.31;5003242;28;20113;-54
2022/03/20 07:15:39;;;;;;;45.55;21.73;;;;;;;4.22;72.09;102793.97;4993337;28;20069;-53
2022/03/20 07:18:04;;;;;;;46.28;21.80;;;;;;;4.35;71.74;102792.47;4995547;28;20527;-54
2022/03/20 07:20:30;;;;;;;46.42;21.80;;;;;;;4.47;71.21;102783.94;5008083;28;20098;-53
2022/03/20 07:22:55;;;;;;;43.10;21.60;;;;;;;4.61;70.43;102782.41;5013395;28;20052;-54
2022/03/20 07:30:48;;;;;;;46.33;20.60;;;;;;;4.82;66.75;102768.13;5009918;28;20445;-54
2022/03/20 07:33:14;;;;;;;44.72;21.65;;;;;;;4.86;67.09;102753.81;5012078;28;20057;-53
2022/03/20 07:35:42;;;;;;;44.22;20.30;;;;;;;4.91;66.78;102756.22;5012886;28;20057;-54
2022/03/20 07:38:07;;;;;;;42.65;20.25;;;;;;;5.03;63.59;102755.59;5012195;28;20424;-53
2022/03/20 07:40:33;;;;;;;44.63;21.38;;;;;;;5.20;63.74;102743.31;5010894;28;20364;-54
2022/03/20 07:42:58;;;;;;;48.42;21.73;;;;;;;5.29;62.63;102742.81;5011590;28;20033;-54
2022/03/20 07:45:23;;;;;;;47.10;20.80;;;;;;;5.33;62.82;102748.81;5027750;28;20400;-54
2022/03/20 07:47:48;;;;;;;44.80;21.13;;;;;;;5.26;62.60;102735.03;5011925;28;20048;-54
2022/03/20 07:50:14;;;;;;;43.95;20.23;;;;;;;5.20;61.71;102738.84;5002327;28;20163;-54
2022/03/20 07:52:39;;;;;;;50.67;22.23;;;;;;;5.18;60.57;102748.69;5000602;28;20044;-54
2022/03/20 07:55:05;;;;;;;42.22;20.98;;;;;;;5.16;61.12;102750.56;5001631;28;20441;-55
2022/03/20 07:57:30;;;;;;;43.55;20.90;;;;;;;5.15;61.66;102756.78;4992407;28;20119;-54
2022/03/20 07:59:56;;;;;;;43.70;20.75;;;;;;;5.14;60.28;102751.56;4992721;28;20034;-54
2022/03/20 08:02:23;;;;;;;41.65;20.50;;;;;;;5.18;59.88;102740.72;4993362;28;20022;-54
2022/03/20 08:04:48;;;;;;;41.90;20.98;;;;;;;5.31;59.96;102745.38;4997187;28;20105;-53
2022/03/20 08:07:13;;;;;;;44.38;21.13;;;;;;;5.40;59.06;102747.56;4995552;28;20160;-53
2022/03/20 08:09:39;;;;;;;47.40;21.88;;;;;;;5.40;58.94;102743.13;4991399;28;20025;-53
2022/03/20 08:12:06;;;;;;;45.67;21.02;;;;;;;5.36;59.21;102744.22;4990909;28;20034;-52
2022/03/20 08:14:31;;;;;;;44.13;21.20;;;;;;;5.30;60.28;102746.34;4991723;28;20565;-53
2022/03/20 08:16:56;;;;;;;48.30;20.75;;;;;;;5.29;60.72;102739.31;4993183;28;20521;-53
2022/03/20 08:19:23;;;;;;;46.10;21.98;;;;;;;5.25;58.96;102732.47;4992878;28;20033;-53
2022/03/20 08:21:49;;;;;;;45.65;21.92;;;;;;;5.20;58.55;102717.66;4992174;28;20060;-54
2022/03/20 08:24:15;;;;;;;47.03;21.63;;;;;;;5.16;58.48;102724.06;4992689;28;20061;-54
2022/03/20 08:26:41;;;;;;;43.25;21.17;;;;;;;5.15;58.59;102724.13;4998447;28;20164;-53
2022/03/20 08:29:12;;;;;;;44.03;20.60;;;;;;;5.11;59.47;102726.09;5012360;28;20032;-52
2022/03/20 08:31:40;;;;;;;44.45;21.83;;;;;;;5.11;60.66;102730.50;5011325;28;20082;-54
2022/03/20 08:34:05;;;;;;;47.90;20.52;;;;;;;5.09;61.11;102724.44;5012315;28;20453;-54
2022/03/20 08:36:31;;;;;;;47.05;21.30;;;;;;;5.05;59.43;102714.00;5011738;28;20033;-54
2022/03/20 08:38:56;;;;;;;43.35;20.42;;;;;;;5.13;61.04;102715.41;5000324;28;20018;-54
2022/03/20 08:41:22;;;;;;;47.88;22.20;;;;;;;5.20;61.41;102725.59;4992738;28;20030;-54
2022/03/20 08:43:47;;;;;;;40.30;20.48;;;;;;;5.27;61.40;102717.34;4991869;28;20524;-54
2022/03/20 08:46:15;;;;;;;42.20;20.05;;;;;;;5.31;60.30;102710.94;4992867;28;20058;-53
2022/03/20 08:48:40;;;;;;;45.85;21.27;;;;;;;5.37;60.73;102718.56;4992240;28;20030;-54
2022/03/20 08:51:05;;;;;;;45.97;21.67;;;;;;;5.34;60.34;102706.34;4990352;28;20014;-54
2022/03/20 08:53:33;;;;;;;47.70;21.48;;;;;;;5.33;59.72;102714.34;4991848;28;20105;-54
2022/03/20 08:55:58;;;;;;;49.58;22.00;;;;;;;5.31;58.98;102716.25;4991707;28;20433;-54
2022/03/20 08:58:24;;;;;;;45.42;21.42;;;;;;;5.28;59.60;102722.56;5003173;28;20208;-53
2022/03/20 09:00:49;;;;;;;44.40;21.85;;;;;;;5.25;59.53;102724.53;5012292;28;20029;-53
2022/03/20 09:03:15;;;;;;;44.00;22.20;;;;;;;5.24;60.88;102721.00;5011434;28;20480;-53
2022/03/20 09:05:40;;;;;;;48.92;21.90;;;;;;;5.21;60.42;102724.69;5011636;28;20025;-53
2022/03/20 09:08:05;;;;;;;49.75;21.65;;;;;;;5.17;62.56;102733.69;5011057;28;20033;-54
2022/03/20 09:10:31;;;;;;;48.85;22.67;;;;;;;5.12;62.23;102727.78;5009444;28;20104;-54
2022/03/20 09:13:00;;;;;;;49.35;21.75;;;;;;;5.11;63.27;102728.75;5014296;28;20029;-51
2022/03/20 09:15:26;;;;;;;49.42;21.98;;;;;;;5.09;63.27;102719.16;5015882;28;20493;-52
2022/03/20 09:20:39;;;;;;;44.30;21.60;;;;;;;5.15;63.47;102717.03;4995392;28;20057;-53
2022/03/20 09:23:06;;;;;;;46.40;21.80;;;;;;;5.20;64.21;102717.66;4994832;28;20366;-54
2022/03/20 09:25:32;;;;;;;43.80;21.63;;;;;;;5.27;62.23;102707.59;4993141;28;20066;-53
2022/03/20 09:27:58;;;;;;;43.90;22.10;;;;;;;5.36;61.99;102700.94;4994653;28;20026;-55
2022/03/20 09:30:23;;;;;;;50.30;21.80;;;;;;;5.49;62.91;102702.03;4996969;28;20120;-53
2022/03/20 09:32:49;;;;;;;47.60;23.08;;;;;;;5.68;61.52;102695.72;5012653;28;20363;-53
2022/03/20 09:35:16;;;;;;;46.33;22.38;;;;;;;5.95;62.00;102686.25;5014541;28;20061;-54
2022/03/20 09:37:42;;;;;;;47.28;22.38;;;;;;;6.28;58.43;102690.63;5014460;28;20087;-52
2022/03/20 09:40:09;;;;;;;47.80;22.50;;;;;;;6.71;58.72;102677.53;5014073;28;20025;-54
2022/03/20 09:42:35;;;;;;;47.15;22.85;;;;;;;7.27;58.22;102675.03;5013035;28;20052;-54
2022/03/20 09:45:01;;;;;;;49.72;22.83;;;;;;;7.65;55.45;102686.91;5010218;28;20594;-54
2022/03/20 09:47:26;;;;;;;49.17;22.73;;;;;;;7.79;55.67;102684.22;5014381;28;20056;-54
2022/03/20 09:49:53;;;;;;;47.15;23.50;;;;;;;7.85;54.68;102662.53;5014647;28;20083;-54
2022/03/20 09:52:19;;;;;;;47.95;22.55;;;;;;;8.01;53.21;102648.25;5012545;28;20756;-53
2022/03/20 09:54:44;;;;;;;57.47;23.75;;;;;;;8.38;52.58;102656.47;5014693;28;20042;-54
2022/03/20 09:57:10;;;;;;;49.50;23.02;;;;;;;8.81;51.08;102653.63;5013181;28;20100;-50
2022/03/20 09:59:38;;;;;;;46.55;23.25;;;;;;;9.05;48.16;102652.91;5014567;28;20029;-49
2022/03/20 10:02:04;;;;;;;47.35;23.02;;;;;;;9.02;47.33;102659.28;5013197;28;20037;-49
2022/03/20 10:04:31;;;;;;;44.08;23.13;;;;;;;8.82;48.47;102654.47;5012729;28;20033;-51
2022/03/20 10:06:58;;;;;;;49.38;23.50;;;;;;;8.71;50.18;102657.88;5027982;28;20095;-51
2022/03/20 10:09:23;;;;;;;54.10;24.27;;;;;;;8.67;48.60;102659.91;5004549;28;20040;-50
2022/03/20 10:11:57;;;;;;;50.88;24.60;;;;;;;8.43;50.10;102665.03;5006102;28;20457;-54
2022/03/20 10:14:24;;;;;;;47.72;23.85;;;;;;;8.13;50.99;102670.53;5009143;28;20197;-54
2022/03/20 10:17:14;;;;;;;49.38;24.83;;;;;;;7.84;52.52;102665.31;5000729;28;20014;-54
2022/03/20 10:19:40;;;;;;;54.10;24.55;;;;;;;7.57;52.54;102659.94;4998103;28;20101;-54
2022/03/20 10:22:08;;;;;;;51.25;24.17;;;;;;;7.38;55.25;102668.22;4992758;28;20735;-53
2022/03/20 10:24:38;;;;;;;51.20;24.80;;;;;;;7.21;53.99;102667.47;4996026;28;20052;-53
2022/03/20 10:27:04;;;;;;;50.97;26.13;;;;;;;7.12;55.89;102673.31;5002181;28;20033;-53
2022/03/20 10:29:34;;;;;;;57.63;27.52;;;;;;;7.01;66.92;102686.41;4997239;28;20836;-54
2022/03/20 10:32:10;;;;;;;56.10;29.50;;;;;;;6.81;74.82;102701.72;4993773;28;20399;-52
2022/03/20 10:34:59;;;;;;;64.32;30.73;;;;;;;6.67;77.59;102696.38;4993024;28;20017;-54
2022/03/20 10:37:43;;;;;;;67.75;32.90;;;;;;;6.58;79.66;102686.31;4993625;28;20030;-54
2022/03/20 10:40:14;;;;;;;65.88;31.05;;;;;;;6.52;81.24;102683.06;4992697;28;20072;-52
2022/03/20 10:42:40;;;;;;;60.03;31.48;;;;;;;6.50;82.50;102690.25;4987376;28;20022;-54
2022/03/20 10:45:07;;;;;;;65.15;31.85;;;;;;;6.46;82.83;102680.75;4994046;28;20021;-54
2022/03/20 10:47:32;;;;;;;68.72;33.42;;;;;;;6.37;82.94;102676.00;5017581;28;20512;-54
2022/03/20 10:50:04;;;;;;;60.08;31.60;;;;;;;6.37;83.89;102683.09;5003461;28;20060;-55
2022/03/20 10:52:30;;;;;;;60.15;31.92;;;;;;;6.44;85.30;102679.16;5004655;28;20500;-53
2022/03/20 10:54:56;;;;;;;72.35;33.67;;;;;;;6.69;88.84;102675.91;5007257;28;20029;-54
2022/03/20 10:57:30;;;;;;;63.83;32.90;;;;;;;6.91;88.67;102679.00;5006839;28;20025;-54
2022/03/20 11:00:00;;;;;;;65.15;33.40;;;;;;;7.20;88.68;102687.00;5002699;28;20034;-54
2022/03/20 11:02:26;;;;;;;63.85;32.22;;;;;;;7.45;88.84;102681.03;4994731;28;20057;-55
2022/03/20 11:04:53;;;;;;;62.92;32.97;;;;;;;7.49;86.84;102684.34;4993610;28;20101;-55
2022/03/20 11:07:23;;;;;;;61.22;32.05;;;;;;;7.44;85.87;102684.63;4992206;28;20361;-54
2022/03/20 11:09:54;;;;;;;60.75;31.95;;;;;;;7.41;84.76;102679.50;5006006;28;20277;-53
2022/03/20 11:12:26;;;;;;;127.03;74.38;;;;;;;7.46;85.56;102672.09;5011576;28;20024;-54
2022/03/20 11:14:54;;;;;;;87.32;48.60;;;;;;;7.52;85.17;102676.19;5010333;28;20563;-54
2022/03/20 11:17:24;;;;;;;100.18;55.55;;;;;;;7.59;86.79;102672.19;5011004;28;20125;-54
2022/03/20 11:19:53;;;;;;;82.65;47.47;;;;;;;7.68;83.58;102676.06;5013436;28;20468;-55
2022/03/20 11:22:20;;;;;;;79.93;45.15;;;;;;;7.74;83.24;102681.00;5012237;28;20094;-54
2022/03/20 11:24:47;;;;;;;103.43;57.72;;;;;;;7.73;82.86;102675.78;5013132;28;20124;-51
2022/03/20 11:27:19;;;;;;;98.68;53.72;;;;;;;7.72;82.64;102682.06;5011559;28;20068;-48
2022/03/20 11:29:49;;;;;;;106.10;60.53;;;;;;;7.65;84.45;102685.13;5010978;28;20501;-51
2022/03/20 11:32:15;;;;;;;151.38;89.13;;;;;;;7.55;81.27;102688.44;5012920;28;20044;-51
2022/03/20 11:34:44;;;;;;;90.47;50.10;;;;;;;7.38;82.13;102677.06;5012020;28;20140;-50
2022/03/20 11:37:10;;;;;;;79.82;43.78;;;;;;;7.37;83.69;102685.13;5003615;28;20160;-48
2022/03/20 11:39:37;;;;;;;80.25;42.40;;;;;;;7.40;86.13;102691.09;5010379;28;20104;-47
2022/03/20 11:42:23;;;;;;;80.07;45.42;;;;;;;7.52;86.54;102676.19;5009617;28;20166;-49
2022/03/20 11:45:01;;;;;;;95.47;55.60;;;;;;;7.55;86.21;102677.78;5000828;28;20042;-51
2022/03/20 11:47:29;;;;;;;80.93;45.08;;;;;;;7.59;83.93;102668.69;5000335;28;20124;-51
2022/03/20 11:50:24;;;;;;;81.78;45.97;;;;;;;7.87;87.45;102669.59;5013136;28;20040;-48